Estación Meteorológica Peña el Pijo (Robertgarden) [ 07/19/24 12:39:03 CEST ]

Fecha Hora Presion(HPa) Temp (°C) Humedad % Rocio (°C) Viento ( m/s) Direccion Lluvia 1Hora(mm) Lluvia 24H(mm) LLuvia Total(mm)
2015-Apr-18 01:01:17 1009.400 9.3 78 5.6         403.52
2015-Apr-18 02:01:16 1009.200 8.6 80 5.3         403.52
2015-Apr-18 03:01:17 1008.200 7.6 82 4.7         403.52
2015-Apr-18 04:01:21 1007.700 7.2 84 4.7         403.52
2015-Apr-18 05:01:15 1007.300 6.5 85 4.2         403.52
2015-Apr-18 06:01:17 1006.800 6.0 86 3.8         403.52
2015-Apr-18 07:01:44 1006.600 5.3 86 3.1         403.52
2015-Apr-18 08:01:41 1006.800 4.7 87 2.7         403.52
2015-Apr-18 09:01:41 1006.900 8.4 89 6.7         403.52
2015-Apr-18 10:01:44 1006.900 14.9 83 12.0         403.52
2015-Apr-18 11:01:39 1006.500 19.5 59 11.3         403.52
2015-Apr-18 12:01:17 1006.900 21.6 47 9.8         403.52
2015-Apr-18 13:01:17 1006.500 22.4 42 8.8         403.52
2015-Apr-18 14:01:18 1005.800 23.5 30 5.0         403.52
2015-Apr-18 15:01:19 1005.400 23.1 35 6.7         403.52
2015-Apr-18 16:01:17 1005.100 22.1 38 7.1         403.52
2015-Apr-18 17:01:17 1004.400 23.3 39 8.6         403.52
2015-Apr-18 18:01:22 1004.300 23.7 33 6.4         403.52
2015-Apr-18 19:01:18 1004.400 20.6 41 6.9         403.52
2015-Apr-18 20:01:17 1005.000 17.1 50 6.6         403.52
2015-Apr-18 21:01:21 1005.600 14.8 57 6.3         403.52
2015-Apr-18 22:01:15 1006.400 12.8 61 5.4         403.52
2015-Apr-18 23:01:19 1006.900 11.2 61 3.9         403.52

Temperatura Máxima:23°    Temperatura Mínima:
Presión Máxima:1009.400 Hpa    Presión Mínima:1004.300 Hpa


Volver